Lamar — WDE7053 — position and weather

sailwx.info

Track history (hours):
 
Tides and Currents Weather Stations Pressure Air Temp Water Temp Dewpoint Dewpoint Depression Visibility Wind Speed Wind Dir Waves Ship Positions

Lamar

Owner: G & H Towing Company, Galveston, TX. More information available from US FCC via Universal Licensing System and Coast Guard Vessel Documentation Center.

Last reported at 2017-Nov-18 06:30 UTC. Time now 2017-Nov-18 06:52 UTC.
Position N 29°41' W 094°59'.

Length 30 m; draft 6.5 m.

Type: Tug. MMSI: 367388340.

Date/timePositionNaut miles runAvg speedWind from/ knotsBaromVisibWave heightAir tempDewpointWater temp
2017-Nov-18 06:30N 29°41' W 094°59'0 0.1
2017-Nov-18 05:59N 29°41' W 094°59'0 0.9
2017-Nov-18 05:28N 29°41' W 094°60'0 0.0
2017-Nov-18 04:55N 29°41' W 094°60'0 0.0
2017-Nov-18 04:22N 29°41' W 094°60'0 0.0
2017-Nov-18 03:58N 29°41' W 094°60'0 0.0
2017-Nov-18 03:28N 29°41' W 094°60'0 0.0
2017-Nov-18 02:46N 29°41' W 094°60'0 0.0
2017-Nov-18 02:28N 29°41' W 094°60'0 0.0
2017-Nov-18 01:55N 29°41' W 094°60'0 0.0
2017-Nov-18 01:28N 29°41' W 094°60'0 0.0
2017-Nov-18 00:58N 29°41' W 094°60'0 0.0
2017-Nov-18 00:28N 29°41' W 094°60'0 0.0
2017-Nov-17 23:55N 29°41' W 094°60'0 0.0
2017-Nov-17 23:10N 29°41' W 094°60'0 0.0
2017-Nov-17 22:58N 29°41' W 094°60'0 0.0
2017-Nov-17 22:19N 29°41' W 094°60'0 0.0
2017-Nov-17 22:00N 29°41' W 094°60'0 0.4
2017-Nov-17 21:28N 29°41' W 095°00'1 1.8
2017-Nov-17 21:00N 29°41' W 094°59'0 0.6
2017-Nov-17 20:30N 29°41' W 094°59'0 0.0
2017-Nov-17 20:00N 29°41' W 094°59'0 0.0
2017-Nov-17 19:30N 29°41' W 094°59'0 0.0
2017-Nov-17 19:00N 29°41' W 094°59'0 0.0
2017-Nov-17 18:30N 29°41' W 094°59'0 0.0
2017-Nov-17 18:00N 29°41' W 094°59'0 0.0
2017-Nov-17 17:30N 29°41' W 094°59'0 0.0
2017-Nov-17 16:59N 29°41' W 094°59'0 0.4
2017-Nov-17 16:30N 29°41' W 094°59'1 1.3
2017-Nov-17 16:00N 29°41' W 094°59'3 6.0
2017-Nov-17 15:30N 29°38' W 094°58'2 4.9
2017-Nov-17 15:00N 29°37' W 095°00'0 0.0
2017-Nov-17 14:30N 29°37' W 095°00'0 0.0
2017-Nov-17 14:00N 29°37' W 095°00'0 0.0
2017-Nov-17 13:30N 29°37' W 095°00'0 0.0
2017-Nov-17 13:00N 29°37' W 095°00'0 0.1
2017-Nov-17 12:30N 29°37' W 095°00'0 0.1
2017-Nov-17 11:55N 29°37' W 095°00'0 0.0
2017-Nov-17 11:25N 29°37' W 095°00'0 0.0
2017-Nov-17 10:58N 29°37' W 095°00'0 0.0
2017-Nov-17 10:28N 29°37' W 095°00'0 0.7
2017-Nov-17 10:00N 29°37' W 095°01'0 0.5
2017-Nov-17 09:30N 29°37' W 095°01'0 0.6
2017-Nov-17 09:00N 29°37' W 095°01'3 6.1
2017-Nov-17 08:31N 29°36' W 094°57'0 0.7
2017-Nov-17 08:00N 29°37' W 094°57'5 9.8
2017-Nov-17 07:31N 29°41' W 094°59'2 4.1
2017-Nov-17 07:01N 29°42' W 095°01'0 0.0
2017-Nov-17 06:30N 29°42' W 095°01'0 0.0
2017-Nov-17 06:01N 29°42' W 095°01'0 0.0
2017-Nov-17 05:30N 29°42' W 095°01'0 0.0
2017-Nov-17 05:01N 29°42' W 095°01'0 0.0
2017-Nov-17 04:30N 29°42' W 095°01'0 0.0
2017-Nov-17 04:00N 29°42' W 095°01'0 0.0
2017-Nov-17 03:31N 29°42' W 095°01'0 0.0
2017-Nov-17 03:00N 29°42' W 095°01'0 0.0
2017-Nov-17 02:31N 29°42' W 095°01'0 0.0
2017-Nov-17 02:01N 29°42' W 095°01'2 1.9
2017-Nov-17 00:45N 29°44' W 095°03'2 0.6
2017-Nov-16 21:06N 29°43' W 095°01'0 5.0
2017-Nov-16 21:00N 29°42' W 095°01'0 0.3
2017-Nov-16 20:31N 29°42' W 095°01'2 3.1
2017-Nov-16 20:00N 29°44' W 095°01'0 0.5
2017-Nov-16 19:30N 29°44' W 095°01'2 3.5
2017-Nov-16 19:01N 29°42' W 095°00'2 4.5
2017-Nov-16 18:30N 29°40' W 094°59'1 2.4
2017-Nov-16 18:01N 29°41' W 094°60'0 0.0
2017-Nov-16 17:31N 29°41' W 094°60'0 0.0
2017-Nov-16 17:01N 29°41' W 094°60'0 0.0
2017-Nov-16 16:31N 29°41' W 094°60'0 0.0
2017-Nov-16 16:00N 29°41' W 094°60'0 0.3
2017-Nov-16 15:28N 29°41' W 094°60'1 1.7
2017-Nov-16 15:00N 29°41' W 095°01'1 1.4
2017-Nov-16 14:30N 29°41' W 094°60'0 0.0
2017-Nov-16 14:01N 29°41' W 094°60'0 0.0
2017-Nov-16 13:30N 29°41' W 094°60'0 0.0
2017-Nov-16 13:01N 29°41' W 094°60'1 1.3
2017-Nov-16 12:30N 29°41' W 094°59'4 8.5
2017-Nov-16 12:00N 29°37' W 094°58'2 3.8
2017-Nov-16 11:30N 29°37' W 095°00'1 1.7
2017-Nov-16 11:00N 29°37' W 095°01'2 3.2
2017-Nov-16 10:30N 29°37' W 094°60'1 2.4
2017-Nov-16 10:01N 29°37' W 094°58'4 8.3
2017-Nov-16 09:30N 29°41' W 094°59'0 0.2
2017-Nov-16 08:58N 29°41' W 094°59'0 0.0
2017-Nov-16 08:04N 29°41' W 094°59'0 0.1
2017-Nov-16 08:00N 29°41' W 094°59'0 0.0
2017-Nov-16 07:23N 29°41' W 094°59'0 0.0
2017-Nov-16 03:40N 29°41' W 094°59'0 1.4
2017-Nov-16 03:30N 29°41' W 094°59'1 1.9
2017-Nov-16 03:00N 29°41' W 095°00'1 0.4
2017-Nov-15 23:53N 29°41' W 094°59'0 0.8
2017-Nov-15 23:30N 29°41' W 094°59'0 0.8
2017-Nov-15 23:00N 29°41' W 094°59'1 2.2
2017-Nov-15 22:30N 29°40' W 094°59'3 6.0
2017-Nov-15 22:00N 29°42' W 095°01'0 0.0
2017-Nov-15 21:31N 29°42' W 095°01'0 0.0
2017-Nov-15 20:51N 29°42' W 095°01'2 6.4
2017-Nov-15 20:31N 29°41' W 094°59'1 1.9
2017-Nov-15 19:47N 29°41' W 095°01'0 0.0
2017-Nov-15 19:31N 29°41' W 095°01'1 2.0
2017-Nov-15 19:00N 29°41' W 094°59'0 0.0
2017-Nov-15 18:31N 29°41' W 094°59'0 0.0
2017-Nov-15 18:01N 29°41' W 094°59'1 1.4
2017-Nov-15 17:30N 29°42' W 094°60'6 1.8
2017-Nov-15 14:23N 29°46' W 095°04'3 7.8
2017-Nov-15 14:00N 29°44' W 095°02'2 4.4
2017-Nov-15 13:30N 29°42' W 095°00'5 9.7
2017-Nov-15 13:00N 29°38' W 094°58'2 4.5
2017-Nov-15 12:30N 29°37' W 095°00'1 1.0
2017-Nov-15 12:00N 29°37' W 095°01'0 0.9
2017-Nov-15 11:30N 29°37' W 095°01'3 5.1
2017-Nov-15 11:00N 29°37' W 094°58'2 2.8
2017-Nov-15 10:27N 29°36' W 094°57'410.0
2017-Nov-15 10:00N 29°40' W 094°59'3 6.3
2017-Nov-15 09:30N 29°42' W 095°01'0 0.0
2017-Nov-15 08:55N 29°42' W 095°01'0 0.0
2017-Nov-15 08:28N 29°42' W 095°01'0 0.0
2017-Nov-15 07:58N 29°42' W 095°01'0 0.0
2017-Nov-15 07:28N 29°42' W 095°01'0 0.0
2017-Nov-15 06:58N 29°42' W 095°01'0 0.0
2017-Nov-15 06:28N 29°42' W 095°01'0 0.0
2017-Nov-15 05:58N 29°42' W 095°01'0 0.0
2017-Nov-15 05:28N 29°42' W 095°01'0 0.0
2017-Nov-15 04:58N 29°42' W 095°01'0 0.0
2017-Nov-15 04:25N 29°42' W 095°01'0 0.0
2017-Nov-15 03:55N 29°42' W 095°01'0 0.0
2017-Nov-15 03:28N 29°42' W 095°01'0 0.0
2017-Nov-15 02:55N 29°42' W 095°01'0 0.0
2017-Nov-15 02:25N 29°42' W 095°01'0 0.0
2017-Nov-15 01:58N 29°42' W 095°01'0 0.0
2017-Nov-15 01:28N 29°42' W 095°01'1 1.2
2017-Nov-15 00:19N 29°44' W 095°01'2 4.5
2017-Nov-14 23:58N 29°44' W 095°03'1 2.9
2017-Nov-14 23:29N 29°44' W 095°01'1 0.4
2017-Nov-14 19:47N 29°42' W 095°01'0 0.1
2017-Nov-14 17:53N 29°42' W 095°01'0 0.3
2017-Nov-14 17:29N 29°42' W 095°01'0 0.0
2017-Nov-14 16:53N 29°42' W 095°01'0 0.0
2017-Nov-14 16:29N 29°42' W 095°01'0 0.0
2017-Nov-14 15:56N 29°42' W 095°01'0 0.0
2017-Nov-14 15:26N 29°42' W 095°01'0 0.0
2017-Nov-14 14:59N 29°42' W 095°01'0 0.0
2017-Nov-14 14:29N 29°42' W 095°01'2 4.4
2017-Nov-14 14:00N 29°41' W 094°59'1 1.0
2017-Nov-14 13:27N 29°41' W 094°60'0 0.0
2017-Nov-14 13:00N 29°41' W 094°60'2 2.9
2017-Nov-14 12:27N 29°42' W 095°01'0 0.5
2017-Nov-14 11:56N 29°42' W 095°01'0 0.0
2017-Nov-14 11:29N 29°42' W 095°01'0 0.0
2017-Nov-14 10:59N 29°42' W 095°01'0 0.0
2017-Nov-14 10:29N 29°42' W 095°01'0 0.0
2017-Nov-14 09:59N 29°42' W 095°01'0 0.0
2017-Nov-14 09:29N 29°42' W 095°01'0 0.0
2017-Nov-14 08:59N 29°42' W 095°01'0 0.0
2017-Nov-14 08:26N 29°42' W 095°01'0 0.0
2017-Nov-14 07:50N 29°42' W 095°01'0 0.0
2017-Nov-14 07:26N 29°42' W 095°01'0 0.0
2017-Nov-14 06:59N 29°42' W 095°01'0 0.0
2017-Nov-14 06:26N 29°42' W 095°01'0 0.0
2017-Nov-14 05:59N 29°42' W 095°01'0 0.0
2017-Nov-14 05:29N 29°42' W 095°01'0 0.0
2017-Nov-14 04:59N 29°42' W 095°01'0 0.0
2017-Nov-14 04:29N 29°42' W 095°01'0 0.0
2017-Nov-14 03:59N 29°42' W 095°01'0 0.0
2017-Nov-14 03:29N 29°42' W 095°01'0 0.0
2017-Nov-14 02:59N 29°42' W 095°01'0 0.0
2017-Nov-14 02:29N 29°42' W 095°01'0 0.0
2017-Nov-14 02:00N 29°42' W 095°01'2 2.2
2017-Nov-14 01:19N 29°44' W 095°01'0 0.0
2017-Nov-14 00:54N 29°44' W 095°01'2 0.1
2017-Nov-13 01:58N 29°42' W 095°01'0 0.0
2017-Nov-13 01:28N 29°42' W 095°01'0 0.0
2017-Nov-13 00:58N 29°42' W 095°01'0 0.0
2017-Nov-13 00:28N 29°42' W 095°01'0 0.0
2017-Nov-12 23:58N 29°42' W 095°01'0 0.0
2017-Nov-12 23:28N 29°42' W 095°01'0 0.0
2017-Nov-12 22:58N 29°42' W 095°01'0 0.0
2017-Nov-12 22:28N 29°42' W 095°01'0 0.0
2017-Nov-12 21:58N 29°42' W 095°01'0 0.0
2017-Nov-12 21:28N 29°42' W 095°01'0 0.0
2017-Nov-12 20:58N 29°42' W 095°01'0 0.0
2017-Nov-12 20:28N 29°42' W 095°01'0 0.0
2017-Nov-12 19:58N 29°42' W 095°01'0 0.0
2017-Nov-12 19:28N 29°42' W 095°01'0 0.2
2017-Nov-12 19:00N 29°42' W 095°01'1 0.8
2017-Nov-12 17:40N 29°43' W 095°01'1 3.8
2017-Nov-12 17:30N 29°43' W 095°01'3 1.5
2017-Nov-12 15:49N 29°41' W 094°59'3 8.1
2017-Nov-12 15:30N 29°43' W 095°01'1 1.3
2017-Nov-12 14:46N 29°44' W 095°01'1 5.1
2017-Nov-12 14:29N 29°42' W 095°01'0 0.0
2017-Nov-12 13:59N 29°42' W 095°01'1 1.8
2017-Nov-12 13:30N 29°42' W 095°00'4 8.5
2017-Nov-12 13:01N 29°38' W 094°58'2 4.2
2017-Nov-12 12:30N 29°37' W 094°60'1 1.0
2017-Nov-12 12:00N 29°37' W 095°00'0 0.1
2017-Nov-12 11:29N 29°37' W 095°00'0 0.0
2017-Nov-12 10:59N 29°37' W 095°00'0 0.0
2017-Nov-12 10:26N 29°37' W 095°00'0 0.0
2017-Nov-12 09:59N 29°37' W 095°00'0 0.0
2017-Nov-12 09:29N 29°37' W 095°00'0 0.0
2017-Nov-12 08:56N 29°37' W 095°00'0 0.0
2017-Nov-12 08:29N 29°37' W 095°00'0 0.0
2017-Nov-12 07:56N 29°37' W 095°00'0 0.0
2017-Nov-12 07:29N 29°37' W 095°00'0 0.0
2017-Nov-12 06:59N 29°37' W 095°00'0 0.0
2017-Nov-12 06:29N 29°37' W 095°00'1 2.1
2017-Nov-12 06:00N 29°37' W 095°01'1 1.4
2017-Nov-12 05:29N 29°37' W 095°01'0 0.0
2017-Nov-12 04:59N 29°37' W 095°01'0 0.0
2017-Nov-12 04:29N 29°37' W 095°01'0 0.0
2017-Nov-12 03:59N 29°37' W 095°01'0 0.0
2017-Nov-12 03:29N 29°37' W 095°01'0 0.0
2017-Nov-12 02:59N 29°37' W 095°01'0 0.0
2017-Nov-12 02:29N 29°37' W 095°01'0 0.0
2017-Nov-12 01:59N 29°37' W 095°01'0 0.0
2017-Nov-12 01:26N 29°37' W 095°01'1 1.5
2017-Nov-12 01:00N 29°37' W 094°60'1 1.4
2017-Nov-12 00:30N 29°37' W 094°59'2 4.6
2017-Nov-12 00:00N 29°37' W 095°02'0 0.1
2017-Nov-11 23:30N 29°37' W 095°02'0 0.0
2017-Nov-11 23:00N 29°37' W 095°02'0 0.8
2017-Nov-11 22:30N 29°37' W 095°01'0 0.0
2017-Nov-11 22:00N 29°37' W 095°01'0 0.0
2017-Nov-11 21:30N 29°37' W 095°01'0 0.0
2017-Nov-11 21:00N 29°37' W 095°01'0 0.0
2017-Nov-11 20:30N 29°37' W 095°01'0 0.0
2017-Nov-11 19:57N 29°37' W 095°01'0 0.0
2017-Nov-11 19:30N 29°37' W 095°01'0 0.0
2017-Nov-11 19:00N 29°37' W 095°01'0 0.0
2017-Nov-11 18:30N 29°37' W 095°01'0 0.0
2017-Nov-11 18:00N 29°37' W 095°01'0 0.0
2017-Nov-11 17:30N 29°37' W 095°01'0 0.0
2017-Nov-11 17:00N 29°37' W 095°01'0 0.0
2017-Nov-11 16:24N 29°37' W 095°01'0 0.0
2017-Nov-11 16:00N 29°37' W 095°01'0 0.0
2017-Nov-11 15:30N 29°37' W 095°01'0 0.0
2017-Nov-11 15:00N 29°37' W 095°01'0 0.0
2017-Nov-11 14:30N 29°37' W 095°01'0 0.0
2017-Nov-11 14:00N 29°37' W 095°01'0 0.0
2017-Nov-11 13:30N 29°37' W 095°01'0 0.0
2017-Nov-11 13:00N 29°37' W 095°01'0 0.0
2017-Nov-11 12:30N 29°37' W 095°01'1 1.7
2017-Nov-11 12:00N 29°37' W 095°00'0 0.6
2017-Nov-11 11:30N 29°37' W 095°00'0 1.0
2017-Nov-11 11:00N 29°37' W 095°01'2 4.9
2017-Nov-11 10:30N 29°37' W 094°58'3 4.9
2017-Nov-11 10:00N 29°35' W 094°56'4 8.6
2017-Nov-11 09:30N 29°37' W 095°01'0 0.0
2017-Nov-11 09:00N 29°37' W 095°01'0 0.0
2017-Nov-11 08:30N 29°37' W 095°01'0 0.0
2017-Nov-11 08:00N 29°37' W 095°01'0 0.0
2017-Nov-11 07:30N 29°37' W 095°01'1 1.4
2017-Nov-11 07:01N 29°37' W 095°01'0 0.0
2017-Nov-11 06:31N 29°37' W 095°01'0 0.0
2017-Nov-11 06:00N 29°37' W 095°01'1 1.4
2017-Nov-11 05:30N 29°37' W 095°01'0 0.0
2017-Nov-11 05:01N 29°37' W 095°01'0 0.0
2017-Nov-11 04:31N 29°37' W 095°01'0 0.0
2017-Nov-11 04:01N 29°37' W 095°01'0 0.0
2017-Nov-11 03:30N 29°37' W 095°01'0 0.0
2017-Nov-11 03:01N 29°37' W 095°01'0 0.0
2017-Nov-11 02:31N 29°37' W 095°01'0 0.0
2017-Nov-11 02:01N 29°37' W 095°01'2 4.8
2017-Nov-11 01:31N 29°37' W 094°58'4 8.6
2017-Nov-11 01:00N 29°41' W 094°59'1 1.4
2017-Nov-11 00:29N 29°41' W 094°60'0 0.0
2017-Nov-10 23:59N 29°41' W 094°60'1 1.1
2017-Nov-10 23:26N 29°41' W 095°01'0 0.0
2017-Nov-10 22:59N 29°41' W 095°01'1 1.9
2017-Nov-10 22:30N 29°41' W 094°60'3 6.8
2017-Nov-10 22:01N 29°38' W 094°58'3 6.2
2017-Nov-10 21:30N 29°37' W 095°01'0 0.1
2017-Nov-10 20:58N 29°37' W 095°01'0 0.0
2017-Nov-10 20:28N 29°37' W 095°01'0 0.0
2017-Nov-10 19:58N 29°37' W 095°01'0 0.9
2017-Nov-10 19:30N 29°37' W 095°02'1 1.4
2017-Nov-10 19:01N 29°37' W 095°01'0 0.5
2017-Nov-10 18:30N 29°37' W 095°01'0 0.0
2017-Nov-10 18:00N 29°37' W 095°01'0 0.0
2017-Nov-10 17:30N 29°37' W 095°01'0 0.0
2017-Nov-10 17:01N 29°37' W 095°01'0 0.0
2017-Nov-10 16:30N 29°37' W 095°01'0 0.0
2017-Nov-10 16:00N 29°37' W 095°01'3 6.5
2017-Nov-10 15:30N 29°37' W 094°57'4 8.6
2017-Nov-10 15:00N 29°41' W 094°59'5 6.4
2017-Nov-10 14:18N 29°44' W 095°03'3 1.4
2017-Nov-10 12:22N 29°45' W 095°06'2 6.1
2017-Nov-10 12:00N 29°44' W 095°03'4 7.3
2017-Nov-10 11:31N 29°42' W 095°00'1 2.2
2017-Nov-10 11:00N 29°41' W 095°00'1 1.2
2017-Nov-10 10:31N 29°41' W 094°59'0 0.4
2017-Nov-10 09:58N 29°41' W 094°59'0 0.0
2017-Nov-10 09:28N 29°41' W 094°59'0 0.0
2017-Nov-10 08:58N 29°41' W 094°59'0 0.0
2017-Nov-10 08:28N 29°41' W 094°59'0 0.0
2017-Nov-10 08:00N 29°41' W 094°59'3 4.6
2017-Nov-10 07:18N 29°44' W 095°01'0 0.0
2017-Nov-10 06:59N 29°44' W 095°01'1 2.9
2017-Nov-10 06:30N 29°42' W 095°01'0 0.0
2017-Nov-10 05:59N 29°42' W 095°01'0 0.0
2017-Nov-10 05:29N 29°42' W 095°01'0 0.0
2017-Nov-10 04:59N 29°42' W 095°01'0 0.0
2017-Nov-10 04:29N 29°42' W 095°01'2 1.5
2017-Nov-10 02:47N 29°44' W 095°03'2 0.9
2017-Nov-10 01:08N 29°44' W 095°01'5 3.1
2017-Nov-09 23:37N 29°44' W 095°07'0 0.0
2017-Nov-09 23:27N 29°44' W 095°07'0 0.0
2017-Nov-09 22:52N 29°44' W 095°07'0 0.0
2017-Nov-09 22:26N 29°44' W 095°07'0 0.0
2017-Nov-09 22:00N 29°44' W 095°07'0 0.0
2017-Nov-09 21:29N 29°44' W 095°07'0 0.0
2017-Nov-09 21:00N 29°44' W 095°07'0 0.0
2017-Nov-09 20:24N 29°44' W 095°07'0 0.0
2017-Nov-09 19:58N 29°44' W 095°07'0 0.0
2017-Nov-09 19:31N 29°44' W 095°07'0 0.0
2017-Nov-09 18:58N 29°44' W 095°07'0 0.0
2017-Nov-09 18:30N 29°44' W 095°07'0 0.0
2017-Nov-09 18:00N 29°44' W 095°07'0 0.0
2017-Nov-09 15:58N 29°44' W 095°07'0 0.0
2017-Nov-09 15:30N 29°44' W 095°07'0 0.0
2017-Nov-09 15:00N 29°44' W 095°07'0 0.0
2017-Nov-09 14:30N 29°44' W 095°07'3 4.0
2017-Nov-09 13:52N 29°45' W 095°04'3 7.7
2017-Nov-09 13:27N 29°43' W 095°01'4 8.6
2017-Nov-09 13:00N 29°40' W 094°58'3 6.2
2017-Nov-09 12:30N 29°37' W 094°60'0 0.8
2017-Nov-09 12:00N 29°37' W 095°00'0 1.0
2017-Nov-09 11:30N 29°37' W 095°01'3 6.4
2017-Nov-09 11:00N 29°37' W 094°57'3 6.4
2017-Nov-09 10:29N 29°34' W 094°55'4 8.2
2017-Nov-09 10:00N 29°37' W 094°58'2 4.4
2017-Nov-09 09:30N 29°37' W 095°01'0 0.0
2017-Nov-09 09:01N 29°37' W 095°01'0 0.0
2017-Nov-09 08:30N 29°37' W 095°01'0 0.0
2017-Nov-09 08:00N 29°37' W 095°01'0 0.0
2017-Nov-09 07:30N 29°37' W 095°01'0 0.0
2017-Nov-09 07:00N 29°37' W 095°01'0 0.0
2017-Nov-09 06:30N 29°37' W 095°01'0 0.0
2017-Nov-09 06:00N 29°37' W 095°01'0 0.0
2017-Nov-09 05:30N 29°37' W 095°01'0 0.1
2017-Nov-09 05:00N 29°37' W 095°01'1 1.5
2017-Nov-09 04:30N 29°37' W 095°01'2 3.5
2017-Nov-09 04:01N 29°37' W 094°59'4 7.2
2017-Nov-09 03:30N 29°40' W 094°59'1 1.4
2017-Nov-09 03:00N 29°41' W 094°59'0 0.0
2017-Nov-09 02:30N 29°41' W 094°59'1 1.8
2017-Nov-09 02:00N 29°41' W 095°00'0 0.2
2017-Nov-09 01:30N 29°41' W 095°00'2 4.8
2017-Nov-09 01:00N 29°43' W 095°01'0 0.9
2017-Nov-09 00:29N 29°44' W 095°01'1 0.4
2017-Nov-08 21:14N 29°42' W 095°01'0 0.0
2017-Nov-08 20:44N 29°42' W 095°01'2 6.9
2017-Nov-08 20:30N 29°44' W 095°02'4 6.6
2017-Nov-08 19:53N 29°45' W 095°06'0 0.0
2017-Nov-08 19:26N 29°45' W 095°06'1 2.4
2017-Nov-08 19:00N 29°46' W 095°05'4 6.6
2017-Nov-08 18:27N 29°44' W 095°02'2 3.0
2017-Nov-08 17:54N 29°42' W 095°01'0 0.0
2017-Nov-08 17:29N 29°42' W 095°01'4 8.0
2017-Nov-08 17:00N 29°39' W 094°58'3 6.1
2017-Nov-08 16:31N 29°37' W 095°00'0 0.4
2017-Nov-08 16:00N 29°37' W 095°01'0 0.0
2017-Nov-08 15:30N 29°37' W 095°01'0 0.0
2017-Nov-08 15:01N 29°37' W 095°01'0 0.0
2017-Nov-08 14:31N 29°37' W 095°01'0 0.0
2017-Nov-08 14:01N 29°37' W 095°01'0 0.0
2017-Nov-08 13:30N 29°37' W 095°01'0 0.0
2017-Nov-08 13:00N 29°37' W 095°01'0 0.0
2017-Nov-08 12:30N 29°37' W 095°01'0 0.0
2017-Nov-08 12:01N 29°37' W 095°01'0 0.6
2017-Nov-08 11:30N 29°37' W 095°00'0 0.8
2017-Nov-08 11:01N 29°37' W 095°01'0 0.0
2017-Nov-08 10:30N 29°37' W 095°01'3 6.0
2017-Nov-08 10:00N 29°37' W 094°57'1 1.4
2017-Nov-08 09:30N 29°37' W 094°57'4 8.2
2017-Nov-08 09:01N 29°41' W 094°59'0 0.0
2017-Nov-08 08:27N 29°41' W 094°59'0 0.0
2017-Nov-08 07:48N 29°41' W 094°59'0 0.0
2017-Nov-08 07:27N 29°41' W 094°59'0 0.0
2017-Nov-08 07:00N 29°41' W 094°59'  
Track history (hours):
 
Tides and Currents Weather Stations Pressure Air Temp Water Temp Dewpoint Dewpoint Depression Visibility Wind Speed Wind Dir Waves Ship Positions

Lamar

Owner: G & H Towing Company, Galveston, TX. More information available from US FCC via Universal Licensing System and Coast Guard Vessel Documentation Center.

Last reported at 2017-Nov-18 06:30 UTC. Time now 2017-Nov-18 06:52 UTC.
Position N 29°41' W 094°59'.

Length 30 m; draft 6.5 m.

Type: Tug. MMSI: 367388340.

Date/timePositionNaut miles runAvg speedWind from/ knotsBaromVisibWave heightAir tempDewpointWater temp
2017-Nov-18 06:30N 29°41' W 094°59'0 0.1
2017-Nov-18 05:59N 29°41' W 094°59'0 0.9
2017-Nov-18 05:28N 29°41' W 094°60'0 0.0
2017-Nov-18 04:55N 29°41' W 094°60'0 0.0
2017-Nov-18 04:22N 29°41' W 094°60'0 0.0
2017-Nov-18 03:58N 29°41' W 094°60'0 0.0
2017-Nov-18 03:28N 29°41' W 094°60'0 0.0
2017-Nov-18 02:46N 29°41' W 094°60'0 0.0
2017-Nov-18 02:28N 29°41' W 094°60'0 0.0
2017-Nov-18 01:55N 29°41' W 094°60'0 0.0
2017-Nov-18 01:28N 29°41' W 094°60'0 0.0
2017-Nov-18 00:58N 29°41' W 094°60'0 0.0
2017-Nov-18 00:28N 29°41' W 094°60'0 0.0
2017-Nov-17 23:55N 29°41' W 094°60'0 0.0
2017-Nov-17 23:10N 29°41' W 094°60'0 0.0
2017-Nov-17 22:58N 29°41' W 094°60'0 0.0
2017-Nov-17 22:19N 29°41' W 094°60'0 0.0
2017-Nov-17 22:00N 29°41' W 094°60'0 0.4
2017-Nov-17 21:28N 29°41' W 095°00'1 1.8
2017-Nov-17 21:00N 29°41' W 094°59'0 0.6
2017-Nov-17 20:30N 29°41' W 094°59'0 0.0
2017-Nov-17 20:00N 29°41' W 094°59'0 0.0
2017-Nov-17 19:30N 29°41' W 094°59'0 0.0
2017-Nov-17 19:00N 29°41' W 094°59'0 0.0
2017-Nov-17 18:30N 29°41' W 094°59'0 0.0
2017-Nov-17 18:00N 29°41' W 094°59'0 0.0
2017-Nov-17 17:30N 29°41' W 094°59'0 0.0
2017-Nov-17 16:59N 29°41' W 094°59'0 0.4
2017-Nov-17 16:30N 29°41' W 094°59'1 1.3
2017-Nov-17 16:00N 29°41' W 094°59'3 6.0
2017-Nov-17 15:30N 29°38' W 094°58'2 4.9
2017-Nov-17 15:00N 29°37' W 095°00'0 0.0
2017-Nov-17 14:30N 29°37' W 095°00'0 0.0
2017-Nov-17 14:00N 29°37' W 095°00'0 0.0
2017-Nov-17 13:30N 29°37' W 095°00'0 0.0
2017-Nov-17 13:00N 29°37' W 095°00'0 0.1
2017-Nov-17 12:30N 29°37' W 095°00'0 0.1
2017-Nov-17 11:55N 29°37' W 095°00'0 0.0
2017-Nov-17 11:25N 29°37' W 095°00'0 0.0
2017-Nov-17 10:58N 29°37' W 095°00'0 0.0
2017-Nov-17 10:28N 29°37' W 095°00'0 0.7
2017-Nov-17 10:00N 29°37' W 095°01'0 0.5
2017-Nov-17 09:30N 29°37' W 095°01'0 0.6
2017-Nov-17 09:00N 29°37' W 095°01'3 6.1
2017-Nov-17 08:31N 29°36' W 094°57'0 0.7
2017-Nov-17 08:00N 29°37' W 094°57'5 9.8
2017-Nov-17 07:31N 29°41' W 094°59'2 4.1
2017-Nov-17 07:01N 29°42' W 095°01'0 0.0
2017-Nov-17 06:30N 29°42' W 095°01'0 0.0
2017-Nov-17 06:01N 29°42' W 095°01'0 0.0
2017-Nov-17 05:30N 29°42' W 095°01'0 0.0
2017-Nov-17 05:01N 29°42' W 095°01'0 0.0
2017-Nov-17 04:30N 29°42' W 095°01'0 0.0
2017-Nov-17 04:00N 29°42' W 095°01'0 0.0
2017-Nov-17 03:31N 29°42' W 095°01'0 0.0
2017-Nov-17 03:00N 29°42' W 095°01'0 0.0
2017-Nov-17 02:31N 29°42' W 095°01'0 0.0
2017-Nov-17 02:01N 29°42' W 095°01'2 1.9
2017-Nov-17 00:45N 29°44' W 095°03'2 0.6
2017-Nov-16 21:06N 29°43' W 095°01'0 5.0
2017-Nov-16 21:00N 29°42' W 095°01'0 0.3
2017-Nov-16 20:31N 29°42' W 095°01'2 3.1
2017-Nov-16 20:00N 29°44' W 095°01'0 0.5
2017-Nov-16 19:30N 29°44' W 095°01'2 3.5
2017-Nov-16 19:01N 29°42' W 095°00'2 4.5
2017-Nov-16 18:30N 29°40' W 094°59'1 2.4
2017-Nov-16 18:01N 29°41' W 094°60'0 0.0
2017-Nov-16 17:31N 29°41' W 094°60'0 0.0
2017-Nov-16 17:01N 29°41' W 094°60'0 0.0
2017-Nov-16 16:31N 29°41' W 094°60'0 0.0
2017-Nov-16 16:00N 29°41' W 094°60'0 0.3
2017-Nov-16 15:28N 29°41' W 094°60'1 1.7
2017-Nov-16 15:00N 29°41' W 095°01'1 1.4
2017-Nov-16 14:30N 29°41' W 094°60'0 0.0
2017-Nov-16 14:01N 29°41' W 094°60'0 0.0
2017-Nov-16 13:30N 29°41' W 094°60'0 0.0
2017-Nov-16 13:01N 29°41' W 094°60'1 1.3
2017-Nov-16 12:30N 29°41' W 094°59'4 8.5
2017-Nov-16 12:00N 29°37' W 094°58'2 3.8
2017-Nov-16 11:30N 29°37' W 095°00'1 1.7
2017-Nov-16 11:00N 29°37' W 095°01'2 3.2
2017-Nov-16 10:30N 29°37' W 094°60'1 2.4
2017-Nov-16 10:01N 29°37' W 094°58'4 8.3
2017-Nov-16 09:30N 29°41' W 094°59'0 0.2
2017-Nov-16 08:58N 29°41' W 094°59'0 0.0
2017-Nov-16 08:04N 29°41' W 094°59'0 0.1
2017-Nov-16 08:00N 29°41' W 094°59'0 0.0
2017-Nov-16 07:23N 29°41' W 094°59'0 0.0
2017-Nov-16 03:40N 29°41' W 094°59'0 1.4
2017-Nov-16 03:30N 29°41' W 094°59'1 1.9
2017-Nov-16 03:00N 29°41' W 095°00'1 0.4
2017-Nov-15 23:53N 29°41' W 094°59'0 0.8
2017-Nov-15 23:30N 29°41' W 094°59'0 0.8
2017-Nov-15 23:00N 29°41' W 094°59'1 2.2
2017-Nov-15 22:30N 29°40' W 094°59'3 6.0
2017-Nov-15 22:00N 29°42' W 095°01'0 0.0
2017-Nov-15 21:31N 29°42' W 095°01'0 0.0
2017-Nov-15 20:51N 29°42' W 095°01'2 6.4
2017-Nov-15 20:31N 29°41' W 094°59'1 1.9
2017-Nov-15 19:47N 29°41' W 095°01'0 0.0
2017-Nov-15 19:31N 29°41' W 095°01'1 2.0
2017-Nov-15 19:00N 29°41' W 094°59'0 0.0
2017-Nov-15 18:31N 29°41' W 094°59'0 0.0
2017-Nov-15 18:01N 29°41' W 094°59'1 1.4
2017-Nov-15 17:30N 29°42' W 094°60'6 1.8
2017-Nov-15 14:23N 29°46' W 095°04'3 7.8
2017-Nov-15 14:00N 29°44' W 095°02'2 4.4
2017-Nov-15 13:30N 29°42' W 095°00'5 9.7
2017-Nov-15 13:00N 29°38' W 094°58'2 4.5
2017-Nov-15 12:30N 29°37' W 095°00'1 1.0
2017-Nov-15 12:00N 29°37' W 095°01'0 0.9
2017-Nov-15 11:30N 29°37' W 095°01'3 5.1
2017-Nov-15 11:00N 29°37' W 094°58'2 2.8
2017-Nov-15 10:27N 29°36' W 094°57'410.0
2017-Nov-15 10:00N 29°40' W 094°59'3 6.3
2017-Nov-15 09:30N 29°42' W 095°01'0 0.0
2017-Nov-15 08:55N 29°42' W 095°01'0 0.0
2017-Nov-15 08:28N 29°42' W 095°01'0 0.0
2017-Nov-15 07:58N 29°42' W 095°01'0 0.0
2017-Nov-15 07:28N 29°42' W 095°01'0 0.0
2017-Nov-15 06:58N 29°42' W 095°01'0 0.0
2017-Nov-15 06:28N 29°42' W 095°01'0 0.0
2017-Nov-15 05:58N 29°42' W 095°01'0 0.0
2017-Nov-15 05:28N 29°42' W 095°01'0 0.0
2017-Nov-15 04:58N 29°42' W 095°01'0 0.0
2017-Nov-15 04:25N 29°42' W 095°01'0 0.0
2017-Nov-15 03:55N 29°42' W 095°01'0 0.0
2017-Nov-15 03:28N 29°42' W 095°01'0 0.0
2017-Nov-15 02:55N 29°42' W 095°01'0 0.0
2017-Nov-15 02:25N 29°42' W 095°01'0 0.0
2017-Nov-15 01:58N 29°42' W 095°01'0 0.0
2017-Nov-15 01:28N 29°42' W 095°01'1 1.2
2017-Nov-15 00:19N 29°44' W 095°01'2 4.5
2017-Nov-14 23:58N 29°44' W 095°03'1 2.9
2017-Nov-14 23:29N 29°44' W 095°01'1 0.4
2017-Nov-14 19:47N 29°42' W 095°01'0 0.1
2017-Nov-14 17:53N 29°42' W 095°01'0 0.3
2017-Nov-14 17:29N 29°42' W 095°01'0 0.0
2017-Nov-14 16:53N 29°42' W 095°01'0 0.0
2017-Nov-14 16:29N 29°42' W 095°01'0 0.0
2017-Nov-14 15:56N 29°42' W 095°01'0 0.0
2017-Nov-14 15:26N 29°42' W 095°01'0 0.0
2017-Nov-14 14:59N 29°42' W 095°01'0 0.0
2017-Nov-14 14:29N 29°42' W 095°01'2 4.4
2017-Nov-14 14:00N 29°41' W 094°59'1 1.0
2017-Nov-14 13:27N 29°41' W 094°60'0 0.0
2017-Nov-14 13:00N 29°41' W 094°60'2 2.9
2017-Nov-14 12:27N 29°42' W 095°01'0 0.5
2017-Nov-14 11:56N 29°42' W 095°01'0 0.0
2017-Nov-14 11:29N 29°42' W 095°01'0 0.0
2017-Nov-14 10:59N 29°42' W 095°01'0 0.0
2017-Nov-14 10:29N 29°42' W 095°01'0 0.0
2017-Nov-14 09:59N 29°42' W 095°01'0 0.0
2017-Nov-14 09:29N 29°42' W 095°01'0 0.0
2017-Nov-14 08:59N 29°42' W 095°01'0 0.0
2017-Nov-14 08:26N 29°42' W 095°01'0 0.0
2017-Nov-14 07:50N 29°42' W 095°01'0 0.0
2017-Nov-14 07:26N 29°42' W 095°01'0 0.0
2017-Nov-14 06:59N 29°42' W 095°01'0 0.0
2017-Nov-14 06:26N 29°42' W 095°01'0 0.0
2017-Nov-14 05:59N 29°42' W 095°01'0 0.0
2017-Nov-14 05:29N 29°42' W 095°01'0 0.0
2017-Nov-14 04:59N 29°42' W 095°01'0 0.0
2017-Nov-14 04:29N 29°42' W 095°01'0 0.0
2017-Nov-14 03:59N 29°42' W 095°01'0 0.0
2017-Nov-14 03:29N 29°42' W 095°01'0 0.0
2017-Nov-14 02:59N 29°42' W 095°01'0 0.0
2017-Nov-14 02:29N 29°42' W 095°01'0 0.0
2017-Nov-14 02:00N 29°42' W 095°01'2 2.2
2017-Nov-14 01:19N 29°44' W 095°01'0 0.0
2017-Nov-14 00:54N 29°44' W 095°01'2 0.1
2017-Nov-13 01:58N 29°42' W 095°01'0 0.0
2017-Nov-13 01:28N 29°42' W 095°01'0 0.0
2017-Nov-13 00:58N 29°42' W 095°01'0 0.0
2017-Nov-13 00:28N 29°42' W 095°01'0 0.0
2017-Nov-12 23:58N 29°42' W 095°01'0 0.0
2017-Nov-12 23:28N 29°42' W 095°01'0 0.0
2017-Nov-12 22:58N 29°42' W 095°01'0 0.0
2017-Nov-12 22:28N 29°42' W 095°01'0 0.0
2017-Nov-12 21:58N 29°42' W 095°01'0 0.0
2017-Nov-12 21:28N 29°42' W 095°01'0 0.0
2017-Nov-12 20:58N 29°42' W 095°01'0 0.0
2017-Nov-12 20:28N 29°42' W 095°01'0 0.0
2017-Nov-12 19:58N 29°42' W 095°01'0 0.0
2017-Nov-12 19:28N 29°42' W 095°01'0 0.2
2017-Nov-12 19:00N 29°42' W 095°01'1 0.8
2017-Nov-12 17:40N 29°43' W 095°01'1 3.8
2017-Nov-12 17:30N 29°43' W 095°01'3 1.5
2017-Nov-12 15:49N 29°41' W 094°59'3 8.1
2017-Nov-12 15:30N 29°43' W 095°01'1 1.3
2017-Nov-12 14:46N 29°44' W 095°01'1 5.1
2017-Nov-12 14:29N 29°42' W 095°01'0 0.0
2017-Nov-12 13:59N 29°42' W 095°01'1 1.8
2017-Nov-12 13:30N 29°42' W 095°00'4 8.5
2017-Nov-12 13:01N 29°38' W 094°58'2 4.2
2017-Nov-12 12:30N 29°37' W 094°60'1 1.0
2017-Nov-12 12:00N 29°37' W 095°00'0 0.1
2017-Nov-12 11:29N 29°37' W 095°00'0 0.0
2017-Nov-12 10:59N 29°37' W 095°00'0 0.0
2017-Nov-12 10:26N 29°37' W 095°00'0 0.0
2017-Nov-12 09:59N 29°37' W 095°00'0 0.0
2017-Nov-12 09:29N 29°37' W 095°00'0 0.0
2017-Nov-12 08:56N 29°37' W 095°00'0 0.0
2017-Nov-12 08:29N 29°37' W 095°00'0 0.0
2017-Nov-12 07:56N 29°37' W 095°00'0 0.0
2017-Nov-12 07:29N 29°37' W 095°00'0 0.0
2017-Nov-12 06:59N 29°37' W 095°00'0 0.0
2017-Nov-12 06:29N 29°37' W 095°00'1 2.1
2017-Nov-12 06:00N 29°37' W 095°01'1 1.4
2017-Nov-12 05:29N 29°37' W 095°01'0 0.0
2017-Nov-12 04:59N 29°37' W 095°01'0 0.0
2017-Nov-12 04:29N 29°37' W 095°01'0 0.0
2017-Nov-12 03:59N 29°37' W 095°01'0 0.0
2017-Nov-12 03:29N 29°37' W 095°01'0 0.0
2017-Nov-12 02:59N 29°37' W 095°01'0 0.0
2017-Nov-12 02:29N 29°37' W 095°01'0 0.0
2017-Nov-12 01:59N 29°37' W 095°01'0 0.0
2017-Nov-12 01:26N 29°37' W 095°01'1 1.5
2017-Nov-12 01:00N 29°37' W 094°60'1 1.4
2017-Nov-12 00:30N 29°37' W 094°59'2 4.6
2017-Nov-12 00:00N 29°37' W 095°02'0 0.1
2017-Nov-11 23:30N 29°37' W 095°02'0 0.0
2017-Nov-11 23:00N 29°37' W 095°02'0 0.8
2017-Nov-11 22:30N 29°37' W 095°01'0 0.0
2017-Nov-11 22:00N 29°37' W 095°01'0 0.0
2017-Nov-11 21:30N 29°37' W 095°01'0 0.0
2017-Nov-11 21:00N 29°37' W 095°01'0 0.0
2017-Nov-11 20:30N 29°37' W 095°01'0 0.0
2017-Nov-11 19:57N 29°37' W 095°01'0 0.0
2017-Nov-11 19:30N 29°37' W 095°01'0 0.0
2017-Nov-11 19:00N 29°37' W 095°01'0 0.0
2017-Nov-11 18:30N 29°37' W 095°01'0 0.0
2017-Nov-11 18:00N 29°37' W 095°01'0 0.0
2017-Nov-11 17:30N 29°37' W 095°01'0 0.0
2017-Nov-11 17:00N 29°37' W 095°01'0 0.0
2017-Nov-11 16:24N 29°37' W 095°01'0 0.0
2017-Nov-11 16:00N 29°37' W 095°01'0 0.0
2017-Nov-11 15:30N 29°37' W 095°01'0 0.0
2017-Nov-11 15:00N 29°37' W 095°01'0 0.0
2017-Nov-11 14:30N 29°37' W 095°01'0 0.0
2017-Nov-11 14:00N 29°37' W 095°01'0 0.0
2017-Nov-11 13:30N 29°37' W 095°01'0 0.0
2017-Nov-11 13:00N 29°37' W 095°01'0 0.0
2017-Nov-11 12:30N 29°37' W 095°01'1 1.7
2017-Nov-11 12:00N 29°37' W 095°00'0 0.6
2017-Nov-11 11:30N 29°37' W 095°00'0 1.0
2017-Nov-11 11:00N 29°37' W 095°01'2 4.9
2017-Nov-11 10:30N 29°37' W 094°58'3 4.9
2017-Nov-11 10:00N 29°35' W 094°56'4 8.6
2017-Nov-11 09:30N 29°37' W 095°01'0 0.0
2017-Nov-11 09:00N 29°37' W 095°01'0 0.0
2017-Nov-11 08:30N 29°37' W 095°01'0 0.0
2017-Nov-11 08:00N 29°37' W 095°01'0 0.0
2017-Nov-11 07:30N 29°37' W 095°01'1 1.4
2017-Nov-11 07:01N 29°37' W 095°01'0 0.0
2017-Nov-11 06:31N 29°37' W 095°01'0 0.0
2017-Nov-11 06:00N 29°37' W 095°01'1 1.4
2017-Nov-11 05:30N 29°37' W 095°01'0 0.0
2017-Nov-11 05:01N 29°37' W 095°01'0 0.0
2017-Nov-11 04:31N 29°37' W 095°01'0 0.0
2017-Nov-11 04:01N 29°37' W 095°01'0 0.0
2017-Nov-11 03:30N 29°37' W 095°01'0 0.0
2017-Nov-11 03:01N 29°37' W 095°01'0 0.0
2017-Nov-11 02:31N 29°37' W 095°01'0 0.0
2017-Nov-11 02:01N 29°37' W 095°01'2 4.8
2017-Nov-11 01:31N 29°37' W 094°58'4 8.6
2017-Nov-11 01:00N 29°41' W 094°59'1 1.4
2017-Nov-11 00:29N 29°41' W 094°60'0 0.0
2017-Nov-10 23:59N 29°41' W 094°60'1 1.1
2017-Nov-10 23:26N 29°41' W 095°01'0 0.0
2017-Nov-10 22:59N 29°41' W 095°01'1 1.9
2017-Nov-10 22:30N 29°41' W 094°60'3 6.8
2017-Nov-10 22:01N 29°38' W 094°58'3 6.2
2017-Nov-10 21:30N 29°37' W 095°01'0 0.1
2017-Nov-10 20:58N 29°37' W 095°01'0 0.0
2017-Nov-10 20:28N 29°37' W 095°01'0 0.0
2017-Nov-10 19:58N 29°37' W 095°01'0 0.9
2017-Nov-10 19:30N 29°37' W 095°02'1 1.4
2017-Nov-10 19:01N 29°37' W 095°01'0 0.5
2017-Nov-10 18:30N 29°37' W 095°01'0 0.0
2017-Nov-10 18:00N 29°37' W 095°01'0 0.0
2017-Nov-10 17:30N 29°37' W 095°01'0 0.0
2017-Nov-10 17:01N 29°37' W 095°01'0 0.0
2017-Nov-10 16:30N 29°37' W 095°01'0 0.0
2017-Nov-10 16:00N 29°37' W 095°01'3 6.5
2017-Nov-10 15:30N 29°37' W 094°57'4 8.6
2017-Nov-10 15:00N 29°41' W 094°59'5 6.4
2017-Nov-10 14:18N 29°44' W 095°03'3 1.4
2017-Nov-10 12:22N 29°45' W 095°06'2 6.1
2017-Nov-10 12:00N 29°44' W 095°03'4 7.3
2017-Nov-10 11:31N 29°42' W 095°00'1 2.2
2017-Nov-10 11:00N 29°41' W 095°00'1 1.2
2017-Nov-10 10:31N 29°41' W 094°59'0 0.4
2017-Nov-10 09:58N 29°41' W 094°59'0 0.0
2017-Nov-10 09:28N 29°41' W 094°59'0 0.0
2017-Nov-10 08:58N 29°41' W 094°59'0 0.0
2017-Nov-10 08:28N 29°41' W 094°59'0 0.0
2017-Nov-10 08:00N 29°41' W 094°59'3 4.6
2017-Nov-10 07:18N 29°44' W 095°01'0 0.0
2017-Nov-10 06:59N 29°44' W 095°01'1 2.9
2017-Nov-10 06:30N 29°42' W 095°01'0 0.0
2017-Nov-10 05:59N 29°42' W 095°01'0 0.0
2017-Nov-10 05:29N 29°42' W 095°01'0 0.0
2017-Nov-10 04:59N 29°42' W 095°01'0 0.0
2017-Nov-10 04:29N 29°42' W 095°01'2 1.5
2017-Nov-10 02:47N 29°44' W 095°03'2 0.9
2017-Nov-10 01:08N 29°44' W 095°01'5 3.1
2017-Nov-09 23:37N 29°44' W 095°07'0 0.0
2017-Nov-09 23:27N 29°44' W 095°07'0 0.0
2017-Nov-09 22:52N 29°44' W 095°07'0 0.0
2017-Nov-09 22:26N 29°44' W 095°07'0 0.0
2017-Nov-09 22:00N 29°44' W 095°07'0 0.0
2017-Nov-09 21:29N 29°44' W 095°07'0 0.0
2017-Nov-09 21:00N 29°44' W 095°07'0 0.0
2017-Nov-09 20:24N 29°44' W 095°07'0 0.0
2017-Nov-09 19:58N 29°44' W 095°07'0 0.0
2017-Nov-09 19:31N 29°44' W 095°07'0 0.0
2017-Nov-09 18:58N 29°44' W 095°07'0 0.0
2017-Nov-09 18:30N 29°44' W 095°07'0 0.0
2017-Nov-09 18:00N 29°44' W 095°07'0 0.0
2017-Nov-09 15:58N 29°44' W 095°07'0 0.0
2017-Nov-09 15:30N 29°44' W 095°07'0 0.0
2017-Nov-09 15:00N 29°44' W 095°07'0 0.0
2017-Nov-09 14:30N 29°44' W 095°07'3 4.0
2017-Nov-09 13:52N 29°45' W 095°04'3 7.7
2017-Nov-09 13:27N 29°43' W 095°01'4 8.6
2017-Nov-09 13:00N 29°40' W 094°58'3 6.2
2017-Nov-09 12:30N 29°37' W 094°60'0 0.8
2017-Nov-09 12:00N 29°37' W 095°00'0 1.0
2017-Nov-09 11:30N 29°37' W 095°01'3 6.4
2017-Nov-09 11:00N 29°37' W 094°57'3 6.4
2017-Nov-09 10:29N 29°34' W 094°55'4 8.2
2017-Nov-09 10:00N 29°37' W 094°58'2 4.4
2017-Nov-09 09:30N 29°37' W 095°01'0 0.0
2017-Nov-09 09:01N 29°37' W 095°01'0 0.0
2017-Nov-09 08:30N 29°37' W 095°01'0 0.0
2017-Nov-09 08:00N 29°37' W 095°01'0 0.0
2017-Nov-09 07:30N 29°37' W 095°01'0 0.0
2017-Nov-09 07:00N 29°37' W 095°01'0 0.0
2017-Nov-09 06:30N 29°37' W 095°01'0 0.0
2017-Nov-09 06:00N 29°37' W 095°01'0 0.0
2017-Nov-09 05:30N 29°37' W 095°01'0 0.1
2017-Nov-09 05:00N 29°37' W 095°01'1 1.5
2017-Nov-09 04:30N 29°37' W 095°01'2 3.5
2017-Nov-09 04:01N 29°37' W 094°59'4 7.2
2017-Nov-09 03:30N 29°40' W 094°59'1 1.4
2017-Nov-09 03:00N 29°41' W 094°59'0 0.0
2017-Nov-09 02:30N 29°41' W 094°59'1 1.8
2017-Nov-09 02:00N 29°41' W 095°00'0 0.2
2017-Nov-09 01:30N 29°41' W 095°00'2 4.8
2017-Nov-09 01:00N 29°43' W 095°01'0 0.9
2017-Nov-09 00:29N 29°44' W 095°01'1 0.4
2017-Nov-08 21:14N 29°42' W 095°01'0 0.0
2017-Nov-08 20:44N 29°42' W 095°01'2 6.9
2017-Nov-08 20:30N 29°44' W 095°02'4 6.6
2017-Nov-08 19:53N 29°45' W 095°06'0 0.0
2017-Nov-08 19:26N 29°45' W 095°06'1 2.4
2017-Nov-08 19:00N 29°46' W 095°05'4 6.6
2017-Nov-08 18:27N 29°44' W 095°02'2 3.0
2017-Nov-08 17:54N 29°42' W 095°01'0 0.0
2017-Nov-08 17:29N 29°42' W 095°01'4 8.0
2017-Nov-08 17:00N 29°39' W 094°58'3 6.1
2017-Nov-08 16:31N 29°37' W 095°00'0 0.4
2017-Nov-08 16:00N 29°37' W 095°01'0 0.0
2017-Nov-08 15:30N 29°37' W 095°01'0 0.0
2017-Nov-08 15:01N 29°37' W 095°01'0 0.0
2017-Nov-08 14:31N 29°37' W 095°01'0 0.0
2017-Nov-08 14:01N 29°37' W 095°01'0 0.0
2017-Nov-08 13:30N 29°37' W 095°01'0 0.0
2017-Nov-08 13:00N 29°37' W 095°01'0 0.0
2017-Nov-08 12:30N 29°37' W 095°01'0 0.0
2017-Nov-08 12:01N 29°37' W 095°01'0 0.6
2017-Nov-08 11:30N 29°37' W 095°00'0 0.8
2017-Nov-08 11:01N 29°37' W 095°01'0 0.0
2017-Nov-08 10:30N 29°37' W 095°01'3 6.0
2017-Nov-08 10:00N 29°37' W 094°57'1 1.4
2017-Nov-08 09:30N 29°37' W 094°57'4 8.2
2017-Nov-08 09:01N 29°41' W 094°59'0 0.0
2017-Nov-08 08:27N 29°41' W 094°59'0 0.0
2017-Nov-08 07:48N 29°41' W 094°59'0 0.0
2017-Nov-08 07:27N 29°41' W 094°59'0 0.0
2017-Nov-08 07:00N 29°41' W 094°59'  

Dump ship's entire track history